Time;durP1;ratioP1;P1;durP2;ratioP2;P2;SDS_P1;SDS_P2;PMS_P1;PMS_P2;Temp;Humidity;BMP_temperature;BMP_pressure;BME280_temperature;BME280_humidity;BME280_pressure;Samples;Min_cycle;Max_cycle;Signal;HPM_P1;HPM_P2
2021/12/14 00:00:08;;;;;;;118.00;39.40;;;9.10;99.90;;;;;;5000709;28;20491;-79
2021/12/14 00:02:40;;;;;;;324.33;53.80;;;9.10;99.90;;;;;;5018300;28;20462;-79
2021/12/14 00:05:09;;;;;;;286.03;45.13;;;9.10;99.90;;;;;;5020069;28;20553;-79
2021/12/14 00:07:38;;;;;;;223.20;53.80;;;9.10;99.90;;;;;;5020478;28;20522;-79
2021/12/14 00:10:26;;;;;;;223.67;54.00;;;9.10;99.90;;;;;;5036982;28;20493;-79
2021/12/14 00:13:01;;;;;;;164.70;41.37;;;9.10;99.90;;;;;;5022192;28;20486;-79
2021/12/14 00:15:30;;;;;;;258.97;55.30;;;9.10;99.90;;;;;;5020599;28;20477;-79
2021/12/14 00:18:02;;;;;;;154.20;32.33;;;9.10;99.90;;;;;;5021883;28;20481;-79
2021/12/14 00:20:37;;;;;;;340.53;58.70;;;9.10;99.90;;;;;;5020561;28;20427;-79
2021/12/14 00:25:55;;;;;;;214.67;43.57;;;9.10;99.90;;;;;;5027958;28;20462;-79
2021/12/14 00:28:28;;;;;;;115.77;29.90;;;9.10;99.90;;;;;;5026431;28;20503;-79
2021/12/14 00:30:59;;;;;;;300.40;55.90;;;9.10;99.90;;;;;;5027973;28;20518;-79
2021/12/14 00:33:31;;;;;;;248.23;49.50;;;9.10;99.90;;;;;;5036120;28;20507;-79
2021/12/14 00:36:00;;;;;;;212.67;52.07;;;9.10;99.90;;;;;;5020604;28;20530;-79
2021/12/14 00:38:30;;;;;;;252.17;53.43;;;9.10;99.90;;;;;;5020163;28;20448;-79
2021/12/14 00:41:02;;;;;;;214.20;43.70;;;9.10;99.90;;;;;;5018247;28;20440;-79
2021/12/14 00:43:33;;;;;;;215.73;44.13;;;9.00;99.90;;;;;;5034999;28;20923;-79
2021/12/14 00:46:03;;;;;;;273.73;54.00;;;9.10;99.90;;;;;;5018704;28;20516;-79
2021/12/14 00:48:31;;;;;;;261.93;57.23;;;9.00;99.90;;;;;;5019623;28;20443;-79
2021/12/14 00:51:01;;;;;;;275.43;49.37;;;9.10;99.90;;;;;;5018541;28;20506;-79
2021/12/14 00:53:30;;;;;;;335.90;47.93;;;9.00;99.90;;;;;;5019253;28;20561;-79
2021/12/14 00:56:03;;;;;;;225.60;40.67;;;9.10;99.90;;;;;;5020310;28;20440;-79
2021/12/14 00:58:34;;;;;;;267.63;46.70;;;9.10;99.90;;;;;;5019523;28;20981;-79
2021/12/14 01:01:05;;;;;;;212.63;46.37;;;9.10;99.90;;;;;;5019227;28;20510;-79
2021/12/14 01:03:36;;;;;;;184.80;43.13;;;9.10;99.90;;;;;;5018646;28;20478;-79
2021/12/14 01:06:09;;;;;;;423.53;60.47;;;9.00;99.90;;;;;;5019612;28;20508;-79
2021/12/14 01:08:41;;;;;;;377.33;61.33;;;9.10;99.90;;;;;;5019284;28;20444;-79
2021/12/14 01:11:15;;;;;;;237.40;39.60;;;9.10;99.90;;;;;;5020458;28;20490;-79
2021/12/14 01:13:55;;;;;;;283.97;60.67;;;9.10;99.90;;;;;;5018938;28;20481;-79
2021/12/14 01:16:35;;;;;;;206.97;37.13;;;9.10;99.90;;;;;;5018797;28;20981;-79
2021/12/14 01:19:24;;;;;;;278.30;42.20;;;9.00;99.90;;;;;;5019008;28;20466;-78
2021/12/14 01:25:04;;;;;;;242.57;44.07;;;9.00;99.90;;;;;;5013262;28;20549;-79
2021/12/14 01:27:41;;;;;;;373.20;53.90;;;9.10;99.90;;;;;;5000233;28;20972;-79
2021/12/14 01:30:18;;;;;;;193.63;38.43;;;9.10;99.90;;;;;;5009026;28;20446;-79
2021/12/14 01:32:48;;;;;;;358.63;42.17;;;9.10;99.90;;;;;;5017632;28;20506;-79
2021/12/14 01:35:20;;;;;;;409.93;60.90;;;9.10;99.90;;;;;;5018771;28;20476;-79
2021/12/14 01:38:01;;;;;;;323.07;45.37;;;9.00;99.90;;;;;;5019470;28;20467;-79
2021/12/14 01:40:54;;;;;;;297.93;33.73;;;9.10;99.90;;;;;;5018817;28;20436;-79
2021/12/14 01:43:34;;;;;;;387.23;51.37;;;9.10;99.90;;;;;;5016552;28;20480;-79
2021/12/14 01:46:15;;;;;;;299.67;44.93;;;9.00;99.90;;;;;;4999058;28;20505;-79
2021/12/14 01:48:44;;;;;;;328.43;50.63;;;9.10;99.90;;;;;;4998508;28;20463;-79
2021/12/14 01:51:33;;;;;;;186.60;36.33;;;9.10;99.90;;;;;;4999479;28;20471;-79
2021/12/14 01:54:13;;;;;;;243.40;53.07;;;9.00;99.90;;;;;;4998254;28;20499;-79
2021/12/14 01:56:41;;;;;;;335.90;43.93;;;9.10;99.90;;;;;;4999149;28;20535;-79
2021/12/14 01:59:17;;;;;;;363.53;69.70;;;9.00;99.90;;;;;;4998265;28;20467;-79
2021/12/14 02:01:55;;;;;;;161.63;30.00;;;9.00;99.90;;;;;;5003071;28;20493;-79
2021/12/14 02:04:27;;;;;;;324.63;42.60;;;9.00;99.90;;;;;;5029153;28;20485;-79
2021/12/14 02:06:59;;;;;;;254.03;52.60;;;9.10;99.90;;;;;;5018592;28;20485;-79
2021/12/14 02:33:42;;;;;;;282.73;53.93;;;9.00;99.90;;;;;;4868399;29;20850;-79
2021/12/14 02:36:14;;;;;;;374.93;40.97;;;8.90;99.90;;;;;;4930600;28;20460;-79
2021/12/14 02:38:45;;;;;;;241.87;53.93;;;8.90;99.90;;;;;;4961678;28;20477;-79
2021/12/14 02:41:15;;;;;;;465.20;66.93;;;9.00;99.90;;;;;;4994061;28;20467;-79
2021/12/14 02:44:02;;;;;;;328.30;41.53;;;8.90;99.90;;;;;;4997110;28;20494;-79
2021/12/14 02:46:37;;;;;;;204.13;46.07;;;8.90;99.90;;;;;;5014356;28;20444;-79
2021/12/14 02:49:12;;;;;;;408.97;68.87;;;9.00;99.90;;;;;;4999860;28;20525;-79
2021/12/14 02:51:46;;;;;;;305.60;49.23;;;9.00;99.90;;;;;;4998422;28;20467;-79
2021/12/14 02:54:20;;;;;;;230.87;37.17;;;8.90;99.90;;;;;;4997400;28;20466;-79
2021/12/14 02:56:56;;;;;;;372.33;49.90;;;8.90;99.90;;;;;;4998260;28;20443;-79
2021/12/14 02:59:28;;;;;;;335.20;56.90;;;8.90;99.90;;;;;;4997868;28;20482;-79
2021/12/14 03:02:04;;;;;;;338.17;60.90;;;8.90;99.90;;;;;;5006901;28;20554;-79
2021/12/14 03:04:41;;;;;;;181.13;41.03;;;8.90;99.90;;;;;;5017342;28;20469;-79
2021/12/14 03:07:12;;;;;;;424.67;56.77;;;8.90;99.90;;;;;;5017675;28;20447;-79
2021/12/14 03:09:56;;;;;;;426.33;58.67;;;8.90;99.90;;;;;;5017930;28;20440;-79
2021/12/14 03:12:31;;;;;;;172.80;38.10;;;8.90;99.90;;;;;;5020813;28;20501;-79
2021/12/14 03:15:03;;;;;;;350.80;58.20;;;8.90;99.90;;;;;;5022458;28;20497;-79
2021/12/14 03:22:35;;;;;;;315.47;52.23;;;8.80;99.90;;;;;;4846473;29;20455;-79
2021/12/14 03:25:12;;;;;;;327.33;54.83;;;8.90;99.90;;;;;;4858330;29;20484;-79
2021/12/14 03:27:43;;;;;;;371.17;51.97;;;8.80;99.90;;;;;;4942216;29;20488;-79
2021/12/14 03:30:20;;;;;;;292.47;41.17;;;8.80;99.90;;;;;;4951042;29;20468;-79
2021/12/14 03:32:50;;;;;;;388.83;57.80;;;8.80;99.90;;;;;;4961505;29;20477;-79
2021/12/14 03:35:19;;;;;;;291.30;37.93;;;8.90;99.90;;;;;;4945453;29;20473;-79
2021/12/14 03:37:48;;;;;;;373.07;51.93;;;8.80;99.90;;;;;;4961086;29;20516;-78
2021/12/14 03:40:20;;;;;;;334.77;61.77;;;8.90;99.90;;;;;;4945019;29;20517;-79
2021/12/14 03:42:49;;;;;;;281.50;43.13;;;8.90;99.90;;;;;;4961819;29;20508;-79
2021/12/14 03:45:22;;;;;;;323.07;54.47;;;8.90;99.90;;;;;;4961640;29;20600;-79
2021/12/14 04:52:27;;;;;;;415.23;58.83;;;8.80;99.90;;;;;;4944382;29;20545;-79
2021/12/14 04:55:02;;;;;;;148.43;33.53;;;8.80;99.90;;;;;;4992774;28;20800;-79
2021/12/14 04:57:36;;;;;;;222.47;50.40;;;8.80;99.90;;;;;;4999596;28;20452;-79
2021/12/14 05:00:20;;;;;;;188.43;42.00;;;8.80;99.90;;;;;;4998933;28;20462;-79
2021/12/14 05:03:03;;;;;;;284.73;53.17;;;8.80;99.90;;;;;;4999316;28;20468;-79
2021/12/14 05:05:44;;;;;;;235.27;40.00;;;8.80;99.90;;;;;;4999909;28;20448;-79
2021/12/14 05:11:07;;;;;;;452.73;72.60;;;8.80;99.90;;;;;;5006059;28;20491;-81
2021/12/14 05:13:39;;;;;;;351.27;57.00;;;8.70;99.90;;;;;;5019277;28;21019;-79
2021/12/14 05:16:18;;;;;;;311.90;44.70;;;8.80;99.90;;;;;;5018401;28;20458;-79
2021/12/14 05:18:49;;;;;;;240.83;51.37;;;8.70;99.90;;;;;;5018637;28;20554;-79
2021/12/14 05:21:24;;;;;;;392.47;53.80;;;8.70;99.90;;;;;;5018939;28;20490;-79
2021/12/14 05:23:53;;;;;;;376.43;55.67;;;8.70;99.90;;;;;;5019059;28;20532;-79
2021/12/14 05:26:22;;;;;;;146.97;33.67;;;8.70;99.90;;;;;;5019224;28;20474;-79
2021/12/14 05:28:51;;;;;;;366.60;54.43;;;8.70;99.90;;;;;;5018564;28;20886;-79
2021/12/14 05:31:22;;;;;;;237.50;60.90;;;8.70;99.90;;;;;;5018810;28;20444;-79
2021/12/14 05:33:52;;;;;;;286.00;58.20;;;8.80;99.90;;;;;;5018060;28;20487;-79
2021/12/14 05:36:39;;;;;;;260.93;56.30;;;8.70;99.90;;;;;;5006907;28;20456;-79
2021/12/14 05:39:29;;;;;;;371.30;63.27;;;8.70;99.90;;;;;;5018437;28;20490;-79
2021/12/14 05:45:16;;;;;;;294.83;49.00;;;8.70;99.90;;;;;;5016876;28;20484;-79
2021/12/14 05:47:48;;;;;;;272.40;53.73;;;8.70;99.90;;;;;;5035698;28;20882;-79
2021/12/14 05:50:27;;;;;;;277.07;69.53;;;8.70;99.90;;;;;;5018389;28;20444;-79
2021/12/14 05:53:00;;;;;;;266.23;43.53;;;8.70;99.90;;;;;;5018318;28;20463;-79
2021/12/14 05:55:37;;;;;;;159.50;37.80;;;8.70;99.90;;;;;;5017874;28;20517;-79
2021/12/14 05:58:13;;;;;;;347.37;58.80;;;8.60;99.90;;;;;;5017504;28;20451;-79
2021/12/14 06:00:45;;;;;;;211.53;45.80;;;8.70;99.90;;;;;;5016880;28;20489;-80
2021/12/14 06:03:19;;;;;;;216.67;54.57;;;8.60;99.90;;;;;;5016957;28;20463;-79
2021/12/14 06:05:49;;;;;;;347.33;51.73;;;8.70;99.90;;;;;;5016646;28;20484;-79
2021/12/14 06:08:28;;;;;;;286.83;41.67;;;8.60;99.90;;;;;;5018696;28;20434;-79
2021/12/14 06:11:04;;;;;;;333.17;59.20;;;8.60;99.90;;;;;;5018099;28;20445;-79
2021/12/14 06:13:39;;;;;;;384.90;67.97;;;8.70;99.90;;;;;;5018906;28;20578;-79
2021/12/14 06:16:23;;;;;;;289.27;50.97;;;8.60;99.90;;;;;;5018376;28;20454;-80
2021/12/14 06:18:51;;;;;;;262.00;52.83;;;8.60;99.90;;;;;;5018310;28;20451;-79
2021/12/14 06:21:32;;;;;;;255.20;50.90;;;8.60;99.90;;;;;;5018557;28;20982;-79
2021/12/14 06:24:10;;;;;;;177.10;41.63;;;8.60;99.90;;;;;;5020302;28;20451;-79
2021/12/14 06:26:46;;;;;;;295.27;53.03;;;8.60;99.90;;;;;;5017207;28;20483;-79
2021/12/14 06:29:18;;;;;;;320.90;62.93;;;8.60;99.90;;;;;;5024639;28;20442;-79
2021/12/14 06:31:52;;;;;;;356.27;59.97;;;8.60;99.90;;;;;;5031787;28;20453;-79
2021/12/14 06:34:24;;;;;;;400.50;70.50;;;8.60;99.90;;;;;;5026927;28;20483;-79
2021/12/14 06:37:42;;;;;;;404.20;70.20;;;8.60;99.90;;;;;;5020422;28;20456;-79
2021/12/14 06:40:19;;;;;;;248.20;46.40;;;8.60;99.90;;;;;;5035372;28;20486;-79
2021/12/14 06:42:52;;;;;;;192.90;36.80;;;8.60;99.90;;;;;;5035728;28;20778;-79
2021/12/14 06:45:24;;;;;;;216.03;46.43;;;8.60;99.90;;;;;;5034130;28;20983;-79
2021/12/14 06:47:57;;;;;;;173.97;44.17;;;8.60;99.90;;;;;;5018173;28;20440;-78
2021/12/14 07:21:42;;;;;;;422.67;66.40;;;8.60;99.90;;;;;;4792439;29;20195;-80
2021/12/14 07:24:37;;;;;;;318.13;68.37;;;8.60;99.90;;;;;;4911760;29;20449;-79
2021/12/14 07:27:28;;;;;;;252.63;57.30;;;8.60;99.90;;;;;;5000684;28;20512;-79
2021/12/14 07:30:15;;;;;;;337.33;60.60;;;8.60;99.90;;;;;;5014895;28;20466;-79
2021/12/14 07:32:47;;;;;;;251.20;64.77;;;8.60;99.90;;;;;;5017475;28;20442;-79
2021/12/14 07:35:36;;;;;;;223.20;47.63;;;8.60;99.90;;;;;;5017992;28;20507;-79
2021/12/14 07:38:25;;;;;;;266.57;58.27;;;8.70;99.90;;;;;;5016552;28;20478;-80
2021/12/14 07:41:03;;;;;;;356.30;58.47;;;8.60;99.90;;;;;;5032612;28;20455;-80
2021/12/14 07:43:35;;;;;;;363.90;58.57;;;8.70;99.90;;;;;;5034902;28;20469;-80
2021/12/14 07:46:17;;;;;;;171.10;51.73;;;8.70;99.90;;;;;;5017614;28;20501;-79
2021/12/14 07:48:49;;;;;;;226.07;48.33;;;8.60;99.90;;;;;;5017473;28;20442;-79
2021/12/14 07:51:20;;;;;;;324.90;61.83;;;8.70;99.90;;;;;;5017854;28;20441;-79
2021/12/14 07:53:54;;;;;;;156.60;50.70;;;8.70;99.90;;;;;;5018187;28;20541;-79
2021/12/14 08:41:10;;;;;;;;;;;;;;;;;;;;;
2021/12/14 09:20:15;;;;;;;257.67;68.30;;;8.80;99.90;;;;;;6028351;23;20370;-80
2021/12/14 09:22:48;;;;;;;313.13;68.47;;;8.90;99.90;;;;;;6144664;23;20448;-80
2021/12/14 09:25:21;;;;;;;239.47;65.17;;;8.80;99.90;;;;;;6178490;23;20798;-80
2021/12/14 09:27:50;;;;;;;272.90;53.63;;;8.90;99.90;;;;;;6230113;23;20412;-80
2021/12/14 09:30:20;;;;;;;264.20;57.87;;;8.90;99.90;;;;;;6230804;23;20955;-80
2021/12/14 09:32:49;;;;;;;234.97;59.00;;;8.80;99.90;;;;;;6228770;23;20739;-80
2021/12/14 09:35:24;;;;;;;250.90;52.67;;;8.90;99.90;;;;;;6229040;23;20954;-80
2021/12/14 09:37:56;;;;;;;171.03;51.70;;;8.90;99.90;;;;;;6242045;23;20783;-80
2021/12/14 09:40:29;;;;;;;377.13;78.50;;;8.90;99.90;;;;;;6241110;22;20817;-80
2021/12/14 09:42:58;;;;;;;240.57;74.20;;;8.90;99.90;;;;;;6242202;22;20417;-80
2021/12/14 09:45:45;;;;;;;;;;;;;;;;;;;;;
2021/12/14 12:04:31;;;;;;;;;;;;;;;;;;;;;
2021/12/14 12:11:05;;;;;;;245.00;61.03;;;9.50;99.90;;;;;;6126831;23;20508;-79
2021/12/14 12:13:35;;;;;;;321.07;70.67;;;9.50;99.90;;;;;;6196175;23;20434;-79
2021/12/14 12:16:13;;;;;;;317.03;78.40;;;9.50;99.90;;;;;;6207383;23;20402;-79
2021/12/14 12:19:09;;;;;;;364.47;71.33;;;9.50;99.90;;;;;;6171847;23;20457;-79
2021/12/14 12:21:38;;;;;;;251.37;66.17;;;9.50;99.90;;;;;;6169483;23;20407;-79
2021/12/14 12:24:32;;;;;;;193.17;62.13;;;9.50;99.90;;;;;;6283290;22;20780;-79
2021/12/14 12:27:30;;;;;;;255.17;61.90;;;9.50;99.90;;;;;;6315372;22;20423;-79
2021/12/14 12:30:15;;;;;;;242.60;62.27;;;9.50;99.90;;;;;;6287856;22;20424;-79
2021/12/14 12:32:44;;;;;;;279.17;63.43;;;9.50;99.90;;;;;;6325303;22;20373;-79
2021/12/14 12:35:29;;;;;;;262.87;68.33;;;9.50;99.90;;;;;;6286164;22;20979;-79
2021/12/14 12:38:01;;;;;;;363.93;69.20;;;9.50;99.90;;;;;;6286591;22;20494;-79
2021/12/14 12:40:48;;;;;;;237.57;67.50;;;9.50;99.90;;;;;;6287535;22;20409;-79
2021/12/14 12:43:21;;;;;;;300.70;73.17;;;9.50;99.90;;;;;;6288099;22;20477;-79
2021/12/14 12:46:11;;;;;;;347.70;75.30;;;9.50;99.90;;;;;;6287278;22;20809;-79
2021/12/14 12:49:00;;;;;;;335.00;79.00;;;9.50;99.90;;;;;;6287063;22;20526;-79
2021/12/14 12:52:05;;;;;;;319.43;73.87;;;9.60;99.90;;;;;;6315084;22;20435;-79
2021/12/14 12:54:41;;;;;;;456.70;89.97;;;9.50;99.90;;;;;;6286467;22;20457;-79
2021/12/14 12:57:30;;;;;;;209.17;70.30;;;9.60;99.90;;;;;;6285534;22;20391;-79
2021/12/14 13:00:10;;;;;;;291.13;65.93;;;9.60;99.90;;;;;;6283416;22;20758;-79
2021/12/14 13:02:43;;;;;;;397.23;90.57;;;9.60;99.90;;;;;;6285689;22;20466;-79
2021/12/14 13:05:28;;;;;;;294.27;80.80;;;9.60;99.90;;;;;;6285452;22;20439;-79
2021/12/14 13:07:59;;;;;;;243.80;70.87;;;9.60;99.90;;;;;;6285865;22;20439;-79
2021/12/14 13:10:32;;;;;;;339.97;81.10;;;9.60;99.90;;;;;;6285777;22;20436;-79
2021/12/14 13:13:07;;;;;;;370.90;77.63;;;9.60;99.90;;;;;;6286111;22;20447;-79
2021/12/14 13:15:48;;;;;;;223.73;64.77;;;9.60;99.90;;;;;;6285896;22;20438;-79
2021/12/14 13:18:40;;;;;;;386.07;85.43;;;9.60;99.90;;;;;;6286811;22;20411;-79
2021/12/14 13:21:16;;;;;;;302.00;77.10;;;9.60;99.90;;;;;;6285867;22;20400;-79
2021/12/14 13:24:03;;;;;;;318.40;72.47;;;9.60;99.90;;;;;;6286021;22;20442;-79
2021/12/14 13:26:47;;;;;;;236.63;69.53;;;9.60;99.90;;;;;;6277700;22;20429;-79
2021/12/14 13:29:32;;;;;;;243.07;68.63;;;9.60;99.90;;;;;;6280503;22;20420;-79
2021/12/14 13:32:12;;;;;;;283.30;72.37;;;9.60;99.90;;;;;;6279844;22;20493;-79
2021/12/14 13:34:46;;;;;;;339.77;82.30;;;9.60;99.90;;;;;;6280379;22;20441;-79
2021/12/14 13:37:17;;;;;;;501.13;99.87;;;9.60;99.90;;;;;;6283456;22;20404;-79
2021/12/14 13:39:47;;;;;;;440.33;79.63;;;9.60;99.90;;;;;;6289806;22;20408;-79
2021/12/14 13:42:35;;;;;;;275.50;70.93;;;9.60;99.90;;;;;;6287117;22;20404;-79
2021/12/14 13:45:09;;;;;;;304.23;74.20;;;9.60;99.90;;;;;;6283181;22;20436;-79
2021/12/14 13:47:40;;;;;;;225.63;68.83;;;9.60;99.90;;;;;;6294233;22;20384;-79
2021/12/14 13:50:11;;;;;;;350.80;75.10;;;9.60;99.90;;;;;;6293315;22;20472;-79
2021/12/14 13:52:40;;;;;;;264.00;69.33;;;9.60;99.90;;;;;;6280443;22;20415;-79
2021/12/14 13:55:28;;;;;;;207.97;71.97;;;9.60;99.90;;;;;;6279351;22;20491;-79
2021/12/14 13:58:00;;;;;;;314.53;79.77;;;9.60;99.90;;;;;;6282428;22;20451;-79
2021/12/14 14:00:38;;;;;;;242.63;60.63;;;9.60;99.90;;;;;;6279324;22;20727;-75
2021/12/14 14:03:06;;;;;;;511.00;86.03;;;9.60;99.90;;;;;;6288166;22;20724;-78
2021/12/14 14:05:35;;;;;;;296.83;64.93;;;9.60;99.90;;;;;;6280881;22;20511;-79
2021/12/14 14:08:08;;;;;;;252.67;70.73;;;9.60;99.90;;;;;;6278756;22;20421;-79
2021/12/14 14:10:38;;;;;;;278.93;74.00;;;9.60;99.90;;;;;;6280085;22;20500;-79
2021/12/14 14:13:11;;;;;;;224.27;62.57;;;9.60;99.90;;;;;;6279153;22;20918;-79
2021/12/14 14:15:45;;;;;;;231.60;68.00;;;9.60;99.90;;;;;;6280178;22;20411;-79
2021/12/14 14:18:15;;;;;;;244.83;64.37;;;9.60;99.90;;;;;;6280711;22;20413;-79
2021/12/14 14:20:51;;;;;;;229.10;64.13;;;9.60;99.90;;;;;;6290676;22;20420;-78
2021/12/14 14:23:24;;;;;;;248.13;63.43;;;9.60;99.90;;;;;;6281778;22;20472;-79
2021/12/14 14:25:59;;;;;;;312.90;64.40;;;9.60;99.90;;;;;;6297261;22;20422;-79
2021/12/14 14:28:37;;;;;;;334.90;72.20;;;9.60;99.90;;;;;;6284587;22;20411;-79
2021/12/14 14:31:08;;;;;;;201.30;65.77;;;9.60;99.90;;;;;;6311603;22;20419;-79
2021/12/14 14:33:48;;;;;;;294.47;76.00;;;9.50;99.90;;;;;;6284159;22;20490;-80
2021/12/14 14:36:32;;;;;;;208.23;64.30;;;9.60;99.90;;;;;;6284435;22;20438;-79
2021/12/14 14:39:12;;;;;;;203.57;59.43;;;9.60;99.90;;;;;;6284853;22;20778;-79
2021/12/14 14:41:48;;;;;;;198.53;61.93;;;9.60;99.90;;;;;;6284261;22;20442;-79
2021/12/14 14:44:33;;;;;;;207.20;68.77;;;9.50;99.90;;;;;;6284263;22;20462;-79
2021/12/14 14:47:13;;;;;;;206.47;64.33;;;9.60;99.90;;;;;;6310266;22;20439;-79
2021/12/14 14:50:26;;;;;;;293.37;71.63;;;9.50;99.90;;;;;;6284812;22;20509;-79
2021/12/14 14:52:59;;;;;;;326.93;75.07;;;9.50;99.90;;;;;;6284215;22;20507;-79
2021/12/14 14:55:34;;;;;;;403.63;76.63;;;9.50;99.90;;;;;;6322485;22;20468;-79
2021/12/14 14:58:06;;;;;;;305.17;68.93;;;9.50;99.90;;;;;;6284428;22;20403;-79
2021/12/14 15:00:58;;;;;;;248.83;63.73;;;9.50;99.90;;;;;;6284155;22;20401;-79
2021/12/14 15:03:35;;;;;;;259.87;66.73;;;9.50;99.90;;;;;;6266600;22;20419;-79
2021/12/14 15:06:08;;;;;;;333.33;78.10;;;9.50;99.90;;;;;;6321760;22;20418;-79
2021/12/14 15:08:51;;;;;;;344.47;72.63;;;9.50;99.90;;;;;;6284474;22;20408;-79
2021/12/14 15:11:31;;;;;;;188.13;53.00;;;9.50;99.90;;;;;;6283989;22;20514;-79
2021/12/14 15:14:07;;;;;;;257.73;68.43;;;9.50;99.90;;;;;;6322030;22;20412;-79
2021/12/14 15:16:54;;;;;;;250.60;75.60;;;9.40;99.90;;;;;;6284221;22;20434;-79
2021/12/14 15:19:36;;;;;;;275.30;65.63;;;9.50;99.90;;;;;;6284907;22;20449;-79
2021/12/14 15:33:33;;;;;;;282.70;68.43;;;9.40;99.90;;;;;;6072318;23;20471;-79
2021/12/14 15:36:23;;;;;;;125.23;56.20;;;9.40;99.90;;;;;;6247251;23;20495;-79
2021/12/14 15:39:05;;;;;;;180.07;63.83;;;9.40;99.90;;;;;;6222025;23;20410;-79
2021/12/14 15:41:34;;;;;;;218.57;59.93;;;9.40;99.90;;;;;;6247030;23;20429;-79
2021/12/14 15:44:07;;;;;;;349.17;73.03;;;9.40;99.90;;;;;;6221781;23;20443;-78
2021/12/14 15:46:38;;;;;;;345.70;69.53;;;9.40;99.90;;;;;;6246797;23;20400;-79
2021/12/14 15:49:14;;;;;;;183.17;59.67;;;9.40;99.90;;;;;;6221339;23;20418;-79
2021/12/14 15:51:46;;;;;;;186.23;52.13;;;9.40;99.90;;;;;;6220604;23;20511;-78
2021/12/14 15:54:33;;;;;;;202.90;62.53;;;9.40;99.90;;;;;;6221663;22;20947;-78
2021/12/14 15:57:07;;;;;;;317.87;71.90;;;9.40;99.90;;;;;;6282952;22;20414;-76
2021/12/14 15:59:37;;;;;;;178.00;56.53;;;9.40;99.90;;;;;;6285266;22;20472;-79
2021/12/14 16:02:16;;;;;;;151.57;56.53;;;9.40;99.90;;;;;;6288765;22;20869;-78
2021/12/14 16:04:49;;;;;;;232.63;61.33;;;9.30;99.90;;;;;;6287652;22;20512;-78
2021/12/14 16:07:23;;;;;;;252.20;60.10;;;9.40;99.90;;;;;;6326304;22;20406;-78
2021/12/14 16:09:58;;;;;;;161.33;57.43;;;9.30;99.90;;;;;;6284627;22;20408;-77
2021/12/14 16:27:38;;;;;;;352.37;66.87;;;9.30;99.90;;;;;;5113000;27;20573;-79
2021/12/14 16:30:17;;;;;;;160.60;55.10;;;9.60;99.90;;;;;;5115902;28;20497;-79
2021/12/14 16:32:46;;;;;;;290.97;64.37;;;9.50;99.90;;;;;;5115628;28;20450;-79
2021/12/14 16:35:14;;;;;;;220.63;57.43;;;9.50;99.90;;;;;;5115391;28;20914;-79
2021/12/14 16:37:42;;;;;;;140.03;47.03;;;9.40;99.90;;;;;;5114482;28;20987;-79
2021/12/14 16:40:15;;;;;;;209.17;52.13;;;9.40;99.90;;;;;;5113735;28;20557;-79
2021/12/14 16:42:48;;;;;;;185.73;49.40;;;9.40;99.90;;;;;;5114929;28;20432;-78
2021/12/14 16:45:17;;;;;;;186.83;49.63;;;9.40;99.90;;;;;;5115133;28;20436;-79
2021/12/14 16:47:48;;;;;;;186.67;51.00;;;9.40;99.90;;;;;;5113651;28;20545;-79
2021/12/14 16:50:19;;;;;;;302.97;62.90;;;9.40;99.90;;;;;;5111226;28;20471;-79
2021/12/14 16:52:48;;;;;;;250.03;55.03;;;9.40;99.90;;;;;;5105129;28;20870;-79
2021/12/14 16:55:22;;;;;;;241.10;62.23;;;9.40;99.90;;;;;;5111510;28;20451;-79
2021/12/14 16:57:54;;;;;;;274.67;61.03;;;9.40;99.90;;;;;;5114925;28;21003;-79
2021/12/14 17:00:25;;;;;;;123.47;45.80;;;9.40;99.90;;;;;;5115027;28;20446;-80
2021/12/14 17:02:55;;;;;;;276.87;67.57;;;9.30;99.90;;;;;;5105042;28;20832;-80
2021/12/14 17:05:29;;;;;;;200.30;60.63;;;9.40;99.90;;;;;;5094674;28;20458;-80
2021/12/14 17:07:59;;;;;;;203.17;58.23;;;9.40;99.90;;;;;;5094190;28;20470;-80
2021/12/14 17:10:30;;;;;;;200.93;52.10;;;9.30;99.90;;;;;;5095637;28;20460;-79
2021/12/14 17:13:08;;;;;;;232.20;59.00;;;9.40;99.90;;;;;;5094661;28;20532;-79
2021/12/14 17:15:40;;;;;;;203.50;57.80;;;9.40;99.90;;;;;;5112134;28;20480;-79
2021/12/14 17:18:23;;;;;;;245.67;55.23;;;9.40;99.90;;;;;;5101042;28;20477;-80
2021/12/14 17:20:52;;;;;;;295.63;61.50;;;9.30;99.90;;;;;;5093737;28;20439;-79
2021/12/14 17:23:25;;;;;;;284.83;69.03;;;9.40;99.90;;;;;;5095253;28;20428;-80
2021/12/14 17:25:56;;;;;;;255.57;58.23;;;9.40;99.90;;;;;;5094177;28;20479;-79
2021/12/14 17:28:35;;;;;;;300.73;58.23;;;9.40;99.90;;;;;;5082374;28;20426;-79
2021/12/14 17:31:04;;;;;;;148.53;50.80;;;9.40;99.90;;;;;;5081766;28;20449;-79
2021/12/14 17:33:36;;;;;;;187.40;55.23;;;9.40;99.90;;;;;;5095161;28;20514;-79
2021/12/14 17:36:07;;;;;;;235.77;52.37;;;9.40;99.90;;;;;;5080481;28;20479;-79
2021/12/14 17:38:35;;;;;;;157.90;50.50;;;9.30;99.90;;;;;;5087264;28;20486;-79
2021/12/14 17:41:05;;;;;;;309.77;64.93;;;9.40;99.90;;;;;;5100545;28;20536;-80
2021/12/14 17:43:35;;;;;;;166.73;54.70;;;9.40;99.90;;;;;;5082750;28;20457;-79
2021/12/14 17:46:05;;;;;;;255.27;58.93;;;9.40;99.90;;;;;;5081411;28;20549;-79
2021/12/14 17:48:37;;;;;;;288.27;54.23;;;9.40;99.90;;;;;;5081346;28;20505;-79
2021/12/14 17:51:11;;;;;;;320.77;66.87;;;9.40;99.90;;;;;;5078998;28;20438;-79
2021/12/14 17:53:41;;;;;;;191.83;56.40;;;9.40;99.90;;;;;;5078711;28;20436;-79
2021/12/14 17:56:13;;;;;;;316.67;68.27;;;9.30;99.90;;;;;;5078730;28;20480;-79
2021/12/14 17:58:44;;;;;;;173.90;46.00;;;9.40;99.90;;;;;;5079108;28;20476;-79
2021/12/14 18:01:16;;;;;;;202.13;55.33;;;9.40;99.90;;;;;;5086535;28;20989;-79
2021/12/14 18:03:48;;;;;;;202.20;53.20;;;9.40;99.90;;;;;;5077925;28;20452;-79
2021/12/14 18:06:20;;;;;;;238.20;62.03;;;9.40;99.90;;;;;;5077768;28;20468;-79
2021/12/14 18:08:51;;;;;;;220.40;50.73;;;9.40;99.90;;;;;;5078166;28;20433;-79
2021/12/14 18:11:22;;;;;;;170.33;50.70;;;9.40;99.90;;;;;;5079237;28;20475;-79
2021/12/14 18:13:58;;;;;;;194.43;56.93;;;9.40;99.90;;;;;;5079118;28;20886;-79
2021/12/14 18:16:36;;;;;;;235.03;56.10;;;9.40;99.90;;;;;;5078657;28;20469;-79
2021/12/14 18:19:07;;;;;;;213.67;53.77;;;9.40;99.90;;;;;;5077443;28;20456;-78
2021/12/14 18:21:39;;;;;;;296.07;61.20;;;9.40;99.90;;;;;;5077781;28;20457;-79
2021/12/14 18:24:10;;;;;;;224.17;55.53;;;9.40;99.90;;;;;;5081433;28;20969;-79
2021/12/14 18:26:42;;;;;;;239.90;59.80;;;9.40;99.90;;;;;;5097837;28;20464;-79
2021/12/14 18:29:13;;;;;;;263.97;57.47;;;9.40;99.90;;;;;;5099373;28;20506;-79
2021/12/14 18:31:43;;;;;;;247.67;51.33;;;9.40;99.90;;;;;;5097338;28;20458;-79
2021/12/14 18:34:15;;;;;;;193.57;55.23;;;9.40;99.90;;;;;;5099080;28;20436;-78
2021/12/14 18:36:47;;;;;;;160.07;48.43;;;9.40;99.90;;;;;;5096259;28;20478;-78
2021/12/14 18:39:20;;;;;;;147.30;51.53;;;9.40;99.90;;;;;;5095538;28;20448;-79
2021/12/14 18:41:52;;;;;;;249.70;59.07;;;9.40;99.90;;;;;;5096798;28;20459;-79
2021/12/14 18:44:25;;;;;;;217.47;51.60;;;9.40;99.90;;;;;;5097036;28;20448;-78
2021/12/14 18:47:11;;;;;;;236.87;47.70;;;9.40;99.90;;;;;;5098561;28;20465;-79
2021/12/14 18:49:40;;;;;;;145.17;49.83;;;9.40;99.90;;;;;;5082614;28;20459;-79
2021/12/14 18:52:13;;;;;;;311.43;61.13;;;9.40;99.90;;;;;;5079806;28;20454;-79
2021/12/14 18:54:44;;;;;;;286.27;64.23;;;9.40;99.90;;;;;;5077293;28;20425;-79
2021/12/14 18:57:12;;;;;;;265.10;63.77;;;9.40;99.90;;;;;;5076266;28;20527;-79
2021/12/14 18:59:47;;;;;;;231.80;60.07;;;9.40;99.90;;;;;;5079535;28;20809;-79
2021/12/14 19:02:18;;;;;;;280.67;67.00;;;9.40;99.90;;;;;;5090926;28;20806;-79
2021/12/14 19:05:00;;;;;;;;;;;;;;;;;;;;;
2021/12/14 19:07:36;;;;;;;258.70;54.33;;;9.40;99.90;;;;;;5048393;28;20568;-77
2021/12/14 19:10:09;;;;;;;295.40;63.30;;;9.30;99.90;;;;;;5054403;28;20969;-77
2021/12/14 19:12:38;;;;;;;255.47;66.87;;;9.40;99.90;;;;;;5052603;28;20544;-78
2021/12/14 19:15:13;;;;;;;226.40;57.27;;;9.40;99.90;;;;;;5055566;28;20516;-77
2021/12/14 19:17:43;;;;;;;257.03;61.17;;;9.40;99.90;;;;;;5063866;28;20489;-78
2021/12/14 19:20:16;;;;;;;273.40;65.10;;;9.40;99.90;;;;;;5052778;28;20430;-77
2021/12/14 19:22:50;;;;;;;198.80;53.70;;;9.40;99.90;;;;;;5051259;28;20475;-77
2021/12/14 19:25:22;;;;;;;193.90;61.40;;;9.40;99.90;;;;;;5053929;28;20435;-77
2021/12/14 19:27:51;;;;;;;243.37;59.67;;;9.40;99.90;;;;;;5043274;28;20541;-77
2021/12/14 19:30:23;;;;;;;177.57;47.47;;;9.40;99.90;;;;;;5053636;28;20437;-77
2021/12/14 19:32:56;;;;;;;277.20;57.27;;;9.40;99.90;;;;;;5053810;28;20427;-77
2021/12/14 19:35:28;;;;;;;271.20;57.43;;;9.40;99.90;;;;;;5035949;28;20460;-77